Time;durP1;ratioP1;P1;durP2;ratioP2;P2;SDS_P1;SDS_P2;PMS_P1;PMS_P2;Temp;Humidity;BMP_temperature;BMP_pressure;BME280_temperature;BME280_humidity;BME280_pressure;Samples;Min_cycle;Max_cycle;Signal;HPM_P1;HPM_P2
2022/03/24 00:02:24;;;;;;;0.37;0.37;;;6.50;58.20;;;;;;5055549;28;20177;-64
2022/03/24 00:04:50;;;;;;;0.70;0.70;;;6.50;57.80;;;;;;5055474;28;20558;-64
2022/03/24 00:07:16;;;;;;;0.40;0.40;;;6.60;57.80;;;;;;5055395;28;20677;-63
2022/03/24 00:09:43;;;;;;;0.30;0.30;;;6.70;58.20;;;;;;5054786;28;20178;-63
2022/03/24 00:12:10;;;;;;;0.40;0.40;;;6.60;58.30;;;;;;5055109;28;20281;-64
2022/03/24 00:14:35;;;;;;;0.55;0.55;;;6.60;57.90;;;;;;5055192;28;20262;-64
2022/03/24 00:17:02;;;;;;;0.30;0.30;;;6.60;57.90;;;;;;5055148;28;20225;-63
2022/03/24 00:19:28;;;;;;;0.35;0.35;;;6.50;57.90;;;;;;5055175;28;20185;-62
2022/03/24 00:21:54;;;;;;;0.40;0.40;;;6.50;58.40;;;;;;5055097;28;20170;-63
2022/03/24 00:24:20;;;;;;;0.30;0.30;;;6.40;58.40;;;;;;5055265;28;20167;-64
2022/03/24 00:26:46;;;;;;;0.57;0.57;;;6.40;58.30;;;;;;5055048;28;20190;-63
2022/03/24 00:29:12;;;;;;;0.30;0.30;;;6.40;58.30;;;;;;5055024;28;20162;-63
2022/03/24 00:31:37;;;;;;;0.40;0.40;;;6.50;58.30;;;;;;5054810;28;20405;-63
2022/03/24 00:34:03;;;;;;;1.27;1.27;;;6.40;58.50;;;;;;5055043;28;20229;-64
2022/03/24 00:36:29;;;;;;;0.40;0.40;;;6.40;58.40;;;;;;5054858;28;20276;-64
2022/03/24 00:38:55;;;;;;;0.40;0.40;;;6.30;58.10;;;;;;5054760;28;20447;-63
2022/03/24 00:41:21;;;;;;;2.53;2.43;;;6.40;57.70;;;;;;5054600;28;20302;-64
2022/03/24 00:43:49;;;;;;;0.50;0.50;;;6.40;58.40;;;;;;5054855;28;20399;-63
2022/03/24 00:46:23;;;;;;;0.30;0.30;;;6.40;58.50;;;;;;5054544;28;20200;-64
2022/03/24 00:48:53;;;;;;;0.30;0.30;;;6.30;58.50;;;;;;5054597;28;20639;-63
2022/03/24 00:51:19;;;;;;;0.30;0.30;;;6.30;59.00;;;;;;5054411;28;20556;-64
2022/03/24 00:53:47;;;;;;;0.40;0.40;;;6.30;59.10;;;;;;5054651;28;20565;-63
2022/03/24 00:56:13;;;;;;;0.35;0.35;;;6.30;59.30;;;;;;5054400;28;20564;-64
2022/03/24 00:58:38;;;;;;;0.77;0.77;;;6.30;59.10;;;;;;5054528;28;20170;-64
2022/03/24 01:01:06;;;;;;;0.40;0.40;;;6.30;59.10;;;;;;5054165;28;20185;-64
2022/03/24 01:03:32;;;;;;;0.30;0.30;;;6.20;59.10;;;;;;5054646;28;20170;-63
2022/03/24 01:05:57;;;;;;;2.00;1.80;;;6.30;59.70;;;;;;5054334;28;20185;-63
2022/03/24 01:08:23;;;;;;;0.30;0.30;;;6.20;59.10;;;;;;5054138;28;20571;-64
2022/03/24 01:10:49;;;;;;;0.30;0.30;;;6.20;59.40;;;;;;5054176;28;20398;-64
2022/03/24 01:13:15;;;;;;;0.40;0.40;;;6.20;59.30;;;;;;5054128;28;20641;-64
2022/03/24 01:15:45;;;;;;;0.40;0.40;;;6.20;59.70;;;;;;5054087;28;20245;-63
2022/03/24 01:18:14;;;;;;;0.40;0.40;;;6.10;59.60;;;;;;5053994;28;20257;-63
2022/03/24 01:20:41;;;;;;;0.35;0.35;;;6.00;59.90;;;;;;5053598;28;20198;-64
2022/03/24 01:23:07;;;;;;;0.40;0.40;;;6.10;59.90;;;;;;5053195;28;20174;-63
2022/03/24 01:25:32;;;;;;;0.40;0.40;;;6.10;59.80;;;;;;5053929;28;20215;-63
2022/03/24 01:27:58;;;;;;;0.30;0.30;;;6.20;59.60;;;;;;5053778;28;20675;-62
2022/03/24 01:30:24;;;;;;;0.80;0.80;;;6.10;59.30;;;;;;5053769;28;20582;-64
2022/03/24 01:32:50;;;;;;;0.40;0.40;;;6.10;59.70;;;;;;5053805;28;20189;-63
2022/03/24 01:35:16;;;;;;;0.40;0.40;;;6.10;59.70;;;;;;5053905;28;20179;-64
2022/03/24 01:37:42;;;;;;;0.37;0.37;;;6.00;59.50;;;;;;5053822;28;20190;-64
2022/03/24 01:40:10;;;;;;;0.40;0.40;;;6.00;59.90;;;;;;5053251;28;20169;-63
2022/03/24 01:42:37;;;;;;;0.40;0.40;;;6.00;60.20;;;;;;5053658;28;20181;-63
2022/03/24 01:45:04;;;;;;;0.63;0.63;;;6.00;60.10;;;;;;5053664;28;20166;-64
2022/03/24 01:47:30;;;;;;;0.30;0.30;;;6.00;59.70;;;;;;5053334;28;20678;-63
2022/03/24 01:49:58;;;;;;;0.40;0.40;;;6.10;59.40;;;;;;5053247;28;20232;-63
2022/03/24 01:52:25;;;;;;;0.40;0.40;;;6.00;59.50;;;;;;5053389;28;20452;-64
2022/03/24 01:54:57;;;;;;;0.50;0.50;;;6.00;59.50;;;;;;5053394;28;20531;-63
2022/03/24 01:57:25;;;;;;;0.40;0.40;;;5.90;59.70;;;;;;5053233;28;20190;-63
2022/03/24 01:59:52;;;;;;;0.35;0.35;;;6.00;59.80;;;;;;5053422;28;20170;-64
2022/03/24 02:02:17;;;;;;;2.85;2.65;;;6.00;60.20;;;;;;5053275;28;20181;-63
2022/03/24 02:04:43;;;;;;;0.30;0.30;;;6.10;60.50;;;;;;5053369;28;20182;-62
2022/03/24 02:07:16;;;;;;;0.30;0.30;;;6.00;60.10;;;;;;5053177;28;20440;-64
2022/03/24 02:09:42;;;;;;;0.35;0.35;;;6.00;59.90;;;;;;5053395;28;20185;-64
2022/03/24 02:12:09;;;;;;;0.30;0.30;;;6.00;60.20;;;;;;5052867;28;20178;-63
2022/03/24 02:14:35;;;;;;;0.30;0.30;;;5.90;60.40;;;;;;5053710;28;20416;-63
2022/03/24 02:17:01;;;;;;;0.30;0.30;;;5.90;60.60;;;;;;5053078;28;20205;-63
2022/03/24 02:19:28;;;;;;;0.30;0.30;;;5.80;60.50;;;;;;5053527;28;20193;-64
2022/03/24 02:21:56;;;;;;;0.80;0.80;;;5.80;60.60;;;;;;5052977;28;20173;-64
2022/03/24 02:24:24;;;;;;;0.40;0.40;;;5.70;60.80;;;;;;5053093;28;20197;-63
2022/03/24 02:26:51;;;;;;;0.30;0.30;;;5.60;60.80;;;;;;5052981;28;20186;-63
2022/03/24 02:29:18;;;;;;;0.30;0.30;;;5.70;61.40;;;;;;5053152;28;20170;-63
2022/03/24 02:31:47;;;;;;;0.80;0.80;;;5.70;61.40;;;;;;5052747;28;20228;-62
2022/03/24 02:37:00;;;;;;;0.40;0.40;;;5.70;62.30;;;;;;5057017;28;20239;-63
2022/03/24 02:39:26;;;;;;;0.40;0.40;;;5.60;61.60;;;;;;5057094;28;20537;-64
2022/03/24 02:41:53;;;;;;;0.30;0.30;;;5.50;62.20;;;;;;5057468;28;20177;-64
2022/03/24 02:44:22;;;;;;;0.50;0.50;;;5.50;62.90;;;;;;5057068;28;20204;-63
2022/03/24 02:46:49;;;;;;;0.40;0.40;;;5.60;62.40;;;;;;5057087;28;20198;-64
2022/03/24 02:49:18;;;;;;;0.32;0.32;;;5.60;62.30;;;;;;5056824;28;20587;-64
2022/03/24 02:51:44;;;;;;;0.40;0.40;;;5.60;61.20;;;;;;5055475;28;20184;-63
2022/03/24 02:54:10;;;;;;;0.30;0.30;;;5.60;61.20;;;;;;5056813;28;20667;-64
2022/03/24 02:56:37;;;;;;;0.30;0.30;;;5.70;61.30;;;;;;5056853;28;20186;-64
2022/03/24 02:59:06;;;;;;;0.40;0.40;;;5.60;61.60;;;;;;5056648;28;20260;-63
2022/03/24 03:01:33;;;;;;;0.30;0.30;;;5.60;61.80;;;;;;5056390;28;20197;-63
2022/03/24 03:03:59;;;;;;;0.30;0.30;;;5.60;61.40;;;;;;5056899;28;20172;-63
2022/03/24 03:06:26;;;;;;;0.30;0.30;;;5.60;61.60;;;;;;5056801;28;20201;-63
2022/03/24 03:08:52;;;;;;;0.30;0.30;;;5.70;61.40;;;;;;5057069;28;20177;-64
2022/03/24 03:11:22;;;;;;;2.25;1.63;;;5.70;62.20;;;;;;5056192;28;20243;-63
2022/03/24 03:13:49;;;;;;;0.40;0.40;;;5.60;62.10;;;;;;5056302;28;20201;-64
2022/03/24 03:16:14;;;;;;;0.40;0.40;;;5.50;61.80;;;;;;5056428;28;20193;-63
2022/03/24 03:18:43;;;;;;;0.40;0.40;;;5.50;61.40;;;;;;5056311;28;20174;-64
2022/03/24 03:21:09;;;;;;;0.30;0.30;;;5.70;62.00;;;;;;5056131;28;20174;-63
2022/03/24 03:23:38;;;;;;;0.30;0.30;;;5.60;61.60;;;;;;5056375;28;20178;-67
2022/03/24 03:26:07;;;;;;;0.40;0.40;;;5.70;62.30;;;;;;5056070;28;20560;-64
2022/03/24 03:28:34;;;;;;;0.60;0.60;;;5.70;61.80;;;;;;5056166;28;20260;-63
2022/03/24 03:31:00;;;;;;;0.30;0.30;;;5.70;62.10;;;;;;5056003;28;20166;-64
2022/03/24 03:33:26;;;;;;;0.40;0.40;;;5.50;62.70;;;;;;5056210;28;20262;-64
2022/03/24 03:35:52;;;;;;;0.40;0.40;;;5.50;63.70;;;;;;5055830;28;20174;-64
2022/03/24 03:38:19;;;;;;;0.43;0.43;;;5.50;64.10;;;;;;5055938;28;20632;-64
2022/03/24 03:40:45;;;;;;;0.35;0.35;;;5.50;63.80;;;;;;5055583;28;20253;-63
2022/03/24 03:43:11;;;;;;;0.30;0.30;;;5.40;63.50;;;;;;5055830;28;20313;-64
2022/03/24 03:45:38;;;;;;;0.30;0.30;;;5.50;63.20;;;;;;5054668;28;20178;-64
2022/03/24 03:48:05;;;;;;;3.15;1.80;;;5.50;62.60;;;;;;5055721;28;20747;-63
2022/03/24 03:50:31;;;;;;;0.47;0.47;;;5.50;62.80;;;;;;5055422;28;20558;-63
2022/03/24 03:52:57;;;;;;;0.35;0.35;;;5.50;63.00;;;;;;5055694;28;20202;-63
2022/03/24 03:55:23;;;;;;;0.37;0.37;;;5.50;62.90;;;;;;5055533;28;20170;-64
2022/03/24 03:57:49;;;;;;;0.37;0.37;;;5.30;63.20;;;;;;5055459;28;20606;-63
2022/03/24 04:03:03;;;;;;;0.30;0.30;;;5.30;63.90;;;;;;5055908;28;20212;-63
2022/03/24 04:05:30;;;;;;;0.30;0.30;;;5.30;63.20;;;;;;5055557;28;20194;-64
2022/03/24 04:07:56;;;;;;;0.40;0.40;;;5.30;63.30;;;;;;5055379;28;20295;-63
2022/03/24 04:10:22;;;;;;;0.40;0.40;;;5.30;63.50;;;;;;5055141;28;20169;-64
2022/03/24 04:12:48;;;;;;;1.93;1.93;;;5.40;63.50;;;;;;5055153;28;20258;-64
2022/03/24 04:15:14;;;;;;;0.40;0.40;;;5.30;63.30;;;;;;5055310;28;20492;-64
2022/03/24 04:17:39;;;;;;;0.40;0.40;;;5.40;63.30;;;;;;5055127;28;20273;-64
2022/03/24 04:20:07;;;;;;;0.40;0.40;;;5.30;63.10;;;;;;5055115;28;20176;-63
2022/03/24 04:22:33;;;;;;;0.30;0.30;;;5.30;63.40;;;;;;5055212;28;20167;-64
2022/03/24 04:24:58;;;;;;;0.30;0.30;;;5.40;65.30;;;;;;5055255;28;20252;-63
2022/03/24 04:27:24;;;;;;;0.30;0.30;;;5.20;64.80;;;;;;5054968;28;20439;-63
2022/03/24 04:29:49;;;;;;;0.40;0.40;;;5.10;65.70;;;;;;5055101;28;20182;-62
2022/03/24 04:32:16;;;;;;;0.40;0.40;;;5.00;66.20;;;;;;5054962;28;20287;-64
2022/03/24 04:34:42;;;;;;;0.30;0.30;;;5.10;66.70;;;;;;5054940;28;20179;-63
2022/03/24 04:37:07;;;;;;;0.30;0.30;;;5.10;66.70;;;;;;5055007;28;20186;-64
2022/03/24 04:39:33;;;;;;;0.40;0.40;;;5.20;66.40;;;;;;5054818;28;20177;-64
2022/03/24 04:41:59;;;;;;;0.30;0.30;;;5.20;65.90;;;;;;5054527;28;20177;-64
2022/03/24 04:44:25;;;;;;;0.33;0.33;;;5.20;65.60;;;;;;5054632;28;20198;-64
2022/03/24 04:46:51;;;;;;;0.40;0.40;;;5.20;65.10;;;;;;5053323;28;20808;-64
2022/03/24 04:49:17;;;;;;;0.30;0.30;;;5.20;65.00;;;;;;5054574;28;20196;-64
2022/03/24 04:51:43;;;;;;;0.38;0.38;;;5.20;65.50;;;;;;5054359;28;20173;-63
2022/03/24 04:54:08;;;;;;;0.30;0.30;;;5.00;65.90;;;;;;5054408;28;20252;-63
2022/03/24 04:56:34;;;;;;;0.40;0.40;;;5.00;66.60;;;;;;5054103;28;20197;-63
2022/03/24 04:59:00;;;;;;;0.40;0.40;;;5.00;67.10;;;;;;5054551;28;20541;-63
2022/03/24 05:01:26;;;;;;;0.30;0.30;;;5.00;66.80;;;;;;5054088;28;20358;-64
2022/03/24 05:03:52;;;;;;;0.30;0.30;;;5.00;66.60;;;;;;5054376;28;20248;-63
2022/03/24 05:06:18;;;;;;;1.50;1.50;;;5.00;66.90;;;;;;5054210;28;20481;-63
2022/03/24 05:08:44;;;;;;;0.40;0.40;;;5.10;66.70;;;;;;5054614;28;20201;-64
2022/03/24 05:11:09;;;;;;;2.40;2.30;;;5.10;66.80;;;;;;5054126;28;20534;-64
2022/03/24 05:13:35;;;;;;;0.40;0.40;;;5.00;67.20;;;;;;5054164;28;20459;-63
2022/03/24 05:16:00;;;;;;;1.17;1.17;;;5.10;67.30;;;;;;5054084;28;20211;-63
2022/03/24 05:18:26;;;;;;;0.40;0.40;;;5.10;66.50;;;;;;5053997;28;20174;-64
2022/03/24 05:20:52;;;;;;;0.40;0.40;;;5.10;66.10;;;;;;5053809;28;20228;-64
2022/03/24 05:23:18;;;;;;;0.30;0.30;;;5.10;66.70;;;;;;5054137;28;20173;-63
2022/03/24 05:25:47;;;;;;;0.90;0.90;;;5.20;66.50;;;;;;5053927;28;20536;-64
2022/03/24 05:28:14;;;;;;;0.40;0.40;;;5.20;66.20;;;;;;5054005;28;20408;-63
2022/03/24 05:30:40;;;;;;;0.30;0.30;;;5.20;65.90;;;;;;5053622;28;20193;-63
2022/03/24 05:33:06;;;;;;;0.40;0.40;;;5.20;66.00;;;;;;5053851;28;20246;-64
2022/03/24 05:35:35;;;;;;;0.30;0.30;;;5.20;65.80;;;;;;5052345;28;20177;-64
2022/03/24 05:38:02;;;;;;;0.47;0.47;;;5.30;65.70;;;;;;5053312;28;20714;-63
2022/03/24 05:40:27;;;;;;;0.30;0.30;;;5.40;65.80;;;;;;5053379;28;20173;-63
2022/03/24 05:42:53;;;;;;;0.40;0.40;;;5.50;65.60;;;;;;5051591;28;20659;-64
2022/03/24 05:45:19;;;;;;;0.30;0.30;;;5.50;65.10;;;;;;5053794;28;20171;-63
2022/03/24 05:47:44;;;;;;;0.30;0.30;;;5.60;65.80;;;;;;5053642;28;20189;-64
2022/03/24 05:50:10;;;;;;;0.40;0.40;;;5.50;66.20;;;;;;5053448;28;20648;-64
2022/03/24 05:52:36;;;;;;;0.38;0.38;;;5.50;67.00;;;;;;5053468;28;20567;-63
2022/03/24 05:55:02;;;;;;;0.40;0.40;;;5.50;66.80;;;;;;5053619;28;20202;-64
2022/03/24 05:57:28;;;;;;;0.30;0.30;;;5.60;66.60;;;;;;5053260;28;20220;-64
2022/03/24 05:59:53;;;;;;;1.27;1.27;;;5.60;66.90;;;;;;5051975;28;20193;-64
2022/03/24 06:02:20;;;;;;;0.30;0.30;;;5.70;66.60;;;;;;5053296;28;20551;-64
2022/03/24 06:04:48;;;;;;;0.30;0.30;;;5.70;66.40;;;;;;5053375;28;20531;-64
2022/03/24 06:07:17;;;;;;;0.30;0.30;;;5.80;66.90;;;;;;5052647;28;20204;-63
2022/03/24 06:09:44;;;;;;;0.40;0.40;;;5.90;66.20;;;;;;5053134;28;20628;-64
2022/03/24 06:12:10;;;;;;;0.30;0.30;;;5.90;65.50;;;;;;5053144;28;20168;-64
2022/03/24 06:14:37;;;;;;;0.40;0.40;;;6.00;65.90;;;;;;5053354;28;20543;-64
2022/03/24 06:17:04;;;;;;;0.30;0.30;;;6.10;64.60;;;;;;5053010;28;20204;-64
2022/03/24 06:19:29;;;;;;;0.35;0.35;;;6.30;64.50;;;;;;5053167;28;20198;-63
2022/03/24 06:21:55;;;;;;;0.33;0.33;;;6.40;64.20;;;;;;5052982;28;20174;-64
2022/03/24 06:24:21;;;;;;;0.40;0.40;;;6.50;63.50;;;;;;5053287;28;20170;-64
2022/03/24 06:26:48;;;;;;;0.40;0.40;;;6.50;63.70;;;;;;5053208;28;20204;-63
2022/03/24 06:29:14;;;;;;;0.38;0.38;;;6.50;64.10;;;;;;5052986;28;20566;-64
2022/03/24 06:31:43;;;;;;;0.30;0.30;;;6.60;63.70;;;;;;5052843;28;20271;-64
2022/03/24 06:34:09;;;;;;;0.40;0.40;;;6.60;63.10;;;;;;5052962;28;20456;-64
2022/03/24 06:36:34;;;;;;;3.03;1.63;;;6.70;62.30;;;;;;5052964;28;20193;-63
2022/03/24 06:39:00;;;;;;;0.40;0.40;;;6.70;62.00;;;;;;5052943;28;20632;-64
2022/03/24 06:41:27;;;;;;;0.30;0.30;;;6.80;62.70;;;;;;5052838;28;20210;-63
2022/03/24 06:43:59;;;;;;;0.40;0.40;;;6.90;61.70;;;;;;5053020;28;20400;-64
2022/03/24 06:46:28;;;;;;;0.40;0.40;;;7.10;63.20;;;;;;5053109;28;20288;-64
2022/03/24 06:48:54;;;;;;;0.40;0.40;;;7.40;62.00;;;;;;5052949;28;20540;-64
2022/03/24 06:51:20;;;;;;;2.47;2.35;;;7.80;60.40;;;;;;5052823;28;20249;-63
2022/03/24 06:53:46;;;;;;;0.40;0.40;;;8.30;61.20;;;;;;5052920;28;20206;-64
2022/03/24 06:56:11;;;;;;;0.40;0.40;;;9.00;58.10;;;;;;5052875;28;20288;-64
2022/03/24 06:58:37;;;;;;;0.40;0.40;;;10.00;54.30;;;;;;5053008;28;20197;-64
2022/03/24 07:01:03;;;;;;;0.77;0.77;;;11.10;52.70;;;;;;5052692;28;20178;-64
2022/03/24 07:03:30;;;;;;;0.40;0.40;;;12.10;50.60;;;;;;5052740;28;20197;-64
2022/03/24 07:05:56;;;;;;;0.30;0.30;;;13.10;48.40;;;;;;5052865;28;20179;-64
2022/03/24 07:08:23;;;;;;;0.30;0.30;;;14.40;46.00;;;;;;5052681;28;20201;-65
2022/03/24 07:10:50;;;;;;;0.80;0.80;;;15.60;42.90;;;;;;5052591;28;20209;-64
2022/03/24 07:13:16;;;;;;;0.30;0.30;;;16.60;41.40;;;;;;5052535;28;20859;-64
2022/03/24 07:15:42;;;;;;;0.40;0.40;;;17.40;40.20;;;;;;5052881;28;20490;-64
2022/03/24 07:18:08;;;;;;;0.73;0.63;;;18.10;39.30;;;;;;5052793;28;20409;-63
2022/03/24 07:20:35;;;;;;;1.03;0.83;;;18.60;37.30;;;;;;5054607;28;20794;-64
2022/03/24 07:23:03;;;;;;;0.30;0.30;;;19.40;36.70;;;;;;5056182;28;20418;-64
2022/03/24 07:25:30;;;;;;;0.40;0.40;;;20.20;35.10;;;;;;5056300;28;20403;-63
2022/03/24 07:27:56;;;;;;;0.80;0.80;;;20.70;34.50;;;;;;5053796;28;20420;-64
2022/03/24 07:30:22;;;;;;;2.83;2.63;;;21.20;33.10;;;;;;5054265;28;20411;-64
2022/03/24 07:32:48;;;;;;;0.50;0.50;;;21.50;32.40;;;;;;5054797;28;20945;-63
2022/03/24 07:35:14;;;;;;;0.87;0.87;;;21.80;32.20;;;;;;5054224;28;20260;-64
2022/03/24 07:37:41;;;;;;;0.80;0.80;;;22.50;32.30;;;;;;5055857;28;20461;-64
2022/03/24 07:40:09;;;;;;;0.77;0.77;;;23.10;32.80;;;;;;5054717;28;20401;-64
2022/03/24 07:42:36;;;;;;;0.93;0.93;;;23.20;30.70;;;;;;5055026;28;20433;-65
2022/03/24 07:45:04;;;;;;;1.23;1.23;;;23.20;30.60;;;;;;5055857;28;20415;-65
2022/03/24 07:47:30;;;;;;;0.50;0.50;;;23.30;31.10;;;;;;5054128;28;20855;-64
2022/03/24 07:49:56;;;;;;;2.53;1.33;;;22.90;29.10;;;;;;5055534;28;20406;-64
2022/03/24 07:52:25;;;;;;;0.33;0.33;;;23.00;30.30;;;;;;5056346;28;20613;-65
2022/03/24 07:54:57;;;;;;;0.40;0.40;;;23.50;30.60;;;;;;5055997;28;20420;-65
2022/03/24 07:57:25;;;;;;;0.83;0.83;;;24.10;29.40;;;;;;5055804;28;20910;-64
2022/03/24 07:59:51;;;;;;;0.63;0.63;;;25.10;28.10;;;;;;5055741;28;20488;-65
2022/03/24 08:02:17;;;;;;;0.67;0.67;;;24.90;28.40;;;;;;5055878;28;20402;-67
2022/03/24 08:04:43;;;;;;;0.40;0.40;;;25.30;28.10;;;;;;5053487;28;20492;-72
2022/03/24 08:07:09;;;;;;;1.10;1.10;;;25.80;27.30;;;;;;5055666;28;20577;-68
2022/03/24 08:09:35;;;;;;;0.60;0.60;;;26.10;26.20;;;;;;5055585;28;20907;-73
2022/03/24 08:12:01;;;;;;;0.60;0.60;;;26.30;26.30;;;;;;5055504;28;20249;-71
2022/03/24 08:14:27;;;;;;;2.20;2.10;;;26.70;26.20;;;;;;5055650;28;20570;-70
2022/03/24 08:16:53;;;;;;;1.90;1.80;;;26.80;26.40;;;;;;5055638;28;20453;-76
2022/03/24 08:19:18;;;;;;;1.10;1.07;;;26.80;25.40;;;;;;5055865;28;20836;-74
2022/03/24 08:21:44;;;;;;;0.40;0.40;;;27.10;26.60;;;;;;5055160;28;20181;-72
2022/03/24 08:24:10;;;;;;;0.40;0.40;;;27.10;25.30;;;;;;5054842;28;20253;-67
2022/03/24 08:26:37;;;;;;;1.17;1.10;;;26.70;25.50;;;;;;5053591;28;20285;-66
2022/03/24 08:29:04;;;;;;;1.13;1.13;;;27.00;25.00;;;;;;5055428;28;20413;-65
2022/03/24 08:31:30;;;;;;;0.40;0.40;;;26.70;25.40;;;;;;5053308;28;20436;-65
2022/03/24 08:33:56;;;;;;;0.40;0.40;;;27.20;25.40;;;;;;5053984;28;20456;-67
2022/03/24 08:36:22;;;;;;;1.27;1.27;;;28.00;25.10;;;;;;5055135;28;20494;-66
2022/03/24 08:38:48;;;;;;;1.73;1.40;;;28.30;24.60;;;;;;5055009;28;20410;-65
2022/03/24 08:41:14;;;;;;;0.80;0.80;;;28.30;24.60;;;;;;5053946;28;20918;-65
2022/03/24 08:43:39;;;;;;;1.23;1.23;;;28.50;24.30;;;;;;5052617;28;20217;-65
2022/03/24 08:46:08;;;;;;;1.47;1.37;;;29.20;22.70;;;;;;5053143;28;20190;-67
2022/03/24 08:48:37;;;;;;;0.97;0.87;;;29.80;20.10;;;;;;5051707;28;20177;-66
2022/03/24 08:51:03;;;;;;;0.80;0.63;;;29.90;21.60;;;;;;5053928;28;20383;-67
2022/03/24 08:53:29;;;;;;;0.80;0.80;;;30.30;21.30;;;;;;5054634;28;20559;-65
2022/03/24 08:55:55;;;;;;;0.87;0.87;;;30.30;20.40;;;;;;5054830;28;20974;-65
2022/03/24 08:58:21;;;;;;;1.60;0.73;;;30.00;20.50;;;;;;5054919;28;20557;-66
2022/03/24 09:00:47;;;;;;;0.53;0.53;;;30.60;19.50;;;;;;5054336;28;20444;-66
2022/03/24 09:03:13;;;;;;;0.70;0.70;;;30.60;18.40;;;;;;5054751;28;20408;-66
2022/03/24 09:05:39;;;;;;;0.60;0.60;;;29.30;18.90;;;;;;5054449;28;20399;-66
2022/03/24 09:08:06;;;;;;;0.93;0.93;;;27.70;19.40;;;;;;5054437;28;20194;-66
2022/03/24 09:10:32;;;;;;;0.93;0.93;;;26.40;20.10;;;;;;5054423;28;20792;-65
2022/03/24 09:12:58;;;;;;;0.70;0.70;;;27.80;19.80;;;;;;5054344;28;20422;-67
2022/03/24 09:15:24;;;;;;;0.40;0.40;;;29.20;19.50;;;;;;5054258;28;20534;-67
2022/03/24 09:17:50;;;;;;;0.60;0.60;;;30.40;18.90;;;;;;5054345;28;20511;-65
2022/03/24 09:20:23;;;;;;;1.77;1.67;;;30.90;17.90;;;;;;5054272;28;20943;-65
2022/03/24 09:22:49;;;;;;;1.43;1.33;;;30.10;17.80;;;;;;5054580;28;20431;-66
2022/03/24 09:25:15;;;;;;;0.40;0.40;;;30.50;18.40;;;;;;5054275;28;20416;-65
2022/03/24 09:27:45;;;;;;;1.07;1.07;;;31.00;17.90;;;;;;5052582;28;20432;-67
2022/03/24 09:30:14;;;;;;;1.43;1.33;;;31.00;18.10;;;;;;5053524;28;20420;-67
2022/03/24 09:32:40;;;;;;;0.40;0.40;;;31.50;17.40;;;;;;5052659;28;20486;-64
2022/03/24 09:35:06;;;;;;;0.70;0.70;;;32.00;17.80;;;;;;5053864;28;20817;-66
2022/03/24 09:37:33;;;;;;;0.60;0.60;;;32.40;17.90;;;;;;5053782;28;20194;-65
2022/03/24 09:40:02;;;;;;;1.53;1.43;;;32.40;17.10;;;;;;5053692;28;20404;-63
2022/03/24 09:42:29;;;;;;;1.00;1.00;;;32.10;18.20;;;;;;5050714;28;20497;-63
2022/03/24 09:45:00;;;;;;;1.07;1.07;;;32.20;18.50;;;;;;5053979;28;20408;-63
2022/03/24 09:47:28;;;;;;;0.60;0.50;;;32.60;18.40;;;;;;5052666;28;21007;-62
2022/03/24 09:49:53;;;;;;;1.07;1.07;;;33.10;18.00;;;;;;5052187;28;20454;-64
2022/03/24 09:52:21;;;;;;;0.40;0.40;;;33.10;17.60;;;;;;5052927;28;20499;-64
2022/03/24 09:54:48;;;;;;;1.07;1.03;;;32.80;17.20;;;;;;5052190;28;20640;-66
2022/03/24 09:57:14;;;;;;;0.30;0.30;;;32.60;17.50;;;;;;5052391;28;20432;-64
2022/03/24 09:59:42;;;;;;;1.80;1.70;;;33.00;17.80;;;;;;5053832;28;20920;-70
2022/03/24 10:02:08;;;;;;;1.10;0.67;;;33.30;17.30;;;;;;5051249;28;20419;-69
2022/03/24 10:04:51;;;;;;;0.50;0.50;;;33.40;16.90;;;;;;5053276;28;20404;-68
2022/03/24 10:07:28;;;;;;;0.87;0.87;;;32.60;16.70;;;;;;5052991;28;20918;-63
2022/03/24 10:09:56;;;;;;;0.43;0.43;;;32.00;18.00;;;;;;5051005;28;20424;-63
2022/03/24 10:12:22;;;;;;;0.60;0.60;;;30.70;17.90;;;;;;5053361;28;20484;-64
2022/03/24 10:15:03;;;;;;;0.67;0.67;;;30.20;18.10;;;;;;5053852;28;20492;-63
2022/03/24 10:17:29;;;;;;;2.53;1.33;;;29.90;18.30;;;;;;5051182;28;20185;-63
2022/03/24 10:20:08;;;;;;;0.50;0.50;;;29.90;19.40;;;;;;5052748;28;20412;-63
2022/03/24 10:22:34;;;;;;;0.40;0.40;;;30.70;18.50;;;;;;5053238;28;20455;-63
2022/03/24 10:25:03;;;;;;;0.40;0.40;;;31.10;17.60;;;;;;5053262;28;20408;-64
2022/03/24 10:27:29;;;;;;;2.30;2.20;;;31.40;17.70;;;;;;5052921;28;20467;-63
2022/03/24 10:29:57;;;;;;;1.67;1.17;;;31.70;17.90;;;;;;5052798;28;20421;-64
2022/03/24 10:32:29;;;;;;;1.97;1.87;;;31.20;17.30;;;;;;5053414;28;20443;-64
2022/03/24 10:35:10;;;;;;;0.63;0.63;;;31.00;17.40;;;;;;5053177;28;20451;-64
2022/03/24 10:37:37;;;;;;;0.70;0.70;;;30.60;18.70;;;;;;5053097;28;20852;-64
2022/03/24 10:40:09;;;;;;;1.50;1.40;;;29.70;19.40;;;;;;5052676;28;20405;-63
2022/03/24 10:42:44;;;;;;;1.23;1.23;;;29.50;19.00;;;;;;5052986;28;20409;-64
2022/03/24 10:45:20;;;;;;;1.07;1.00;;;30.10;18.70;;;;;;5053128;28;20503;-64
2022/03/24 10:48:01;;;;;;;1.13;1.03;;;30.20;19.00;;;;;;5053445;28;20933;-64
2022/03/24 10:50:28;;;;;;;0.80;0.67;;;28.90;18.60;;;;;;5052813;28;20416;-64
2022/03/24 10:53:02;;;;;;;0.63;0.50;;;26.90;20.20;;;;;;5052729;28;20522;-63
2022/03/24 10:55:51;;;;;;;3.50;2.33;;;26.60;20.10;;;;;;5056180;28;20408;-64
2022/03/24 10:58:36;;;;;;;0.30;0.30;;;27.00;19.80;;;;;;5057166;28;20352;-63
2022/03/24 11:01:05;;;;;;;0.90;0.60;;;27.20;20.10;;;;;;5056572;28;20427;-64
2022/03/24 11:03:32;;;;;;;0.70;0.70;;;27.60;20.40;;;;;;5056819;28;20891;-62
2022/03/24 11:06:17;;;;;;;0.80;0.40;;;26.90;20.20;;;;;;5056942;28;20442;-64
2022/03/24 11:08:50;;;;;;;0.60;0.50;;;26.30;20.30;;;;;;5056718;28;20487;-63
2022/03/24 11:11:16;;;;;;;0.70;0.70;;;25.60;20.50;;;;;;5056701;28;20760;-67
2022/03/24 11:13:52;;;;;;;3.77;2.03;;;24.30;20.80;;;;;;5056643;28;20463;-66
2022/03/24 11:16:23;;;;;;;0.30;0.30;;;23.00;21.50;;;;;;5054563;28;20431;-67
2022/03/24 11:18:50;;;;;;;1.07;1.07;;;22.10;21.40;;;;;;5057245;28;20461;-68
2022/03/24 11:21:44;;;;;;;1.83;1.73;;;21.90;22.20;;;;;;5056709;28;20412;-68
2022/03/24 11:24:10;;;;;;;0.43;0.43;;;22.00;22.10;;;;;;5055967;28;20410;-68
2022/03/24 11:26:36;;;;;;;0.40;0.40;;;21.60;23.30;;;;;;5055071;28;20503;-67
2022/03/24 11:29:03;;;;;;;0.30;0.30;;;21.70;23.70;;;;;;5056423;28;20413;-66
2022/03/24 11:31:31;;;;;;;2.17;1.97;;;21.60;22.10;;;;;;5055945;28;20503;-67
2022/03/24 11:34:00;;;;;;;0.30;0.30;;;21.10;22.20;;;;;;5054687;28;20505;-67
2022/03/24 11:36:28;;;;;;;0.30;0.30;;;20.70;24.20;;;;;;5055058;28;20486;-67
2022/03/24 11:39:01;;;;;;;0.50;0.50;;;20.80;22.70;;;;;;5053740;28;20473;-66
2022/03/24 11:41:40;;;;;;;0.30;0.30;;;20.20;22.50;;;;;;5054891;28;20405;-67
2022/03/24 11:44:27;;;;;;;1.17;1.17;;;20.20;24.00;;;;;;5056110;28;20958;-67
2022/03/24 11:46:56;;;;;;;0.80;0.50;;;20.60;23.40;;;;;;5055932;28;20432;-67
2022/03/24 11:49:24;;;;;;;0.70;0.70;;;20.80;23.30;;;;;;5056183;28;20933;-66
2022/03/24 11:52:10;;;;;;;0.30;0.30;;;20.60;24.80;;;;;;5056012;28;20490;-67
2022/03/24 11:54:38;;;;;;;0.30;0.30;;;20.60;25.50;;;;;;5055341;28;20506;-67
2022/03/24 11:57:26;;;;;;;0.70;0.70;;;20.90;24.40;;;;;;5055841;28;20436;-67
2022/03/24 12:00:13;;;;;;;0.50;0.47;;;20.50;25.30;;;;;;5055700;28;20485;-67
2022/03/24 12:02:39;;;;;;;0.40;0.40;;;20.50;26.40;;;;;;5055748;28;20411;-67
2022/03/24 12:05:07;;;;;;;1.00;1.00;;;20.70;26.70;;;;;;5055138;28;20443;-67
2022/03/24 12:07:32;;;;;;;0.50;0.50;;;20.10;28.60;;;;;;5055486;28;20452;-67
2022/03/24 12:10:03;;;;;;;2.40;1.80;;;19.80;29.80;;;;;;5055308;28;20485;-74
2022/03/24 12:12:29;;;;;;;0.73;0.73;;;19.30;29.80;;;;;;5053258;28;20570;-66
2022/03/24 12:14:58;;;;;;;0.50;0.50;;;18.90;29.70;;;;;;5056102;28;20487;-70
2022/03/24 12:17:31;;;;;;;0.30;0.30;;;19.00;30.20;;;;;;5054355;28;21282;-78
2022/03/24 12:19:58;;;;;;;0.30;0.30;;;19.00;30.00;;;;;;5054589;28;20842;-67
2022/03/24 12:22:30;;;;;;;0.60;0.60;;;19.20;30.50;;;;;;5055341;28;20410;-67
2022/03/24 12:24:59;;;;;;;0.60;0.60;;;18.40;30.30;;;;;;5055370;28;20410;-67
2022/03/24 12:27:30;;;;;;;0.40;0.40;;;18.50;30.60;;;;;;5055408;28;20434;-68
2022/03/24 12:30:11;;;;;;;0.30;0.30;;;18.60;32.10;;;;;;5055339;28;20742;-67
2022/03/24 12:32:37;;;;;;;0.40;0.40;;;17.90;33.20;;;;;;5055113;28;20539;-68
2022/03/24 12:35:04;;;;;;;0.30;0.30;;;17.60;33.70;;;;;;5055189;28;20457;-68
2022/03/24 12:37:32;;;;;;;0.87;0.87;;;17.40;33.70;;;;;;5051891;28;20524;-67
2022/03/24 12:40:10;;;;;;;0.50;0.50;;;17.60;34.00;;;;;;5054578;28;20405;-67
2022/03/24 12:42:43;;;;;;;0.30;0.30;;;18.20;33.90;;;;;;5054896;28;20543;-66
2022/03/24 12:45:30;;;;;;;0.50;0.50;;;17.80;32.70;;;;;;5052948;28;20408;-66
2022/03/24 12:47:59;;;;;;;0.40;0.40;;;17.80;33.00;;;;;;5054255;28;20458;-68
2022/03/24 12:50:24;;;;;;;1.17;1.17;;;18.10;32.80;;;;;;5054646;28;20492;-67
2022/03/24 12:53:05;;;;;;;1.03;1.00;;;18.10;33.10;;;;;;5054702;28;20603;-68
2022/03/24 12:55:33;;;;;;;0.63;0.63;;;17.90;33.10;;;;;;5054739;28;20579;-68
2022/03/24 12:58:02;;;;;;;2.93;2.83;;;17.90;33.40;;;;;;5054649;28;20432;-66
2022/03/24 13:00:33;;;;;;;0.40;0.40;;;17.60;33.00;;;;;;5054477;28;20436;-67
2022/03/24 13:03:02;;;;;;;2.40;2.30;;;17.70;33.00;;;;;;5054812;28;20405;-66